createdAt,value
2018-10-17T00:02:20.019Z,0.60
2018-10-17T00:04:48.208Z,0.60
2018-10-17T00:07:16.531Z,0.70
2018-10-17T00:09:44.733Z,0.70
2018-10-17T00:12:12.996Z,0.70
2018-10-17T00:14:41.239Z,0.60
2018-10-17T00:17:09.566Z,0.60
2018-10-17T00:19:38.546Z,0.60
2018-10-17T00:22:06.760Z,0.60
2018-10-17T00:24:35.025Z,0.70
2018-10-17T00:27:03.369Z,0.70
2018-10-17T00:29:32.375Z,0.70
2018-10-17T00:32:00.587Z,0.67
2018-10-17T00:34:28.792Z,0.60
2018-10-17T00:36:57.837Z,0.70
2018-10-17T00:39:26.080Z,0.70
2018-10-17T00:41:55.063Z,0.70
2018-10-17T00:44:24.083Z,0.60
2018-10-17T00:46:52.368Z,0.63
2018-10-17T00:49:20.555Z,0.70
2018-10-17T00:51:48.800Z,0.60
2018-10-17T00:54:17.768Z,0.63
2018-10-17T00:56:45.991Z,0.70
2018-10-17T00:59:14.238Z,0.70
2018-10-17T01:01:42.437Z,0.70
2018-10-17T01:04:10.639Z,0.70
2018-10-17T01:06:39.627Z,0.70
2018-10-17T01:09:07.827Z,0.70
2018-10-17T01:11:36.061Z,0.70
2018-10-17T01:14:04.307Z,0.70
2018-10-17T01:16:33.353Z,0.60
2018-10-17T01:19:01.544Z,0.70
2018-10-17T01:21:29.814Z,0.70
2018-10-17T01:23:58.051Z,0.70
2018-10-17T01:26:26.258Z,0.70
2018-10-17T01:28:54.565Z,0.70
2018-10-17T01:31:22.717Z,0.70
2018-10-17T01:33:50.963Z,0.70
2018-10-17T01:36:19.219Z,0.60
2018-10-17T01:38:48.214Z,0.70
2018-10-17T01:41:17.337Z,0.60
2018-10-17T01:43:45.487Z,0.70
2018-10-17T01:46:14.467Z,0.70
2018-10-17T01:48:42.711Z,0.70
2018-10-17T01:51:10.927Z,0.70
2018-10-17T01:53:39.927Z,0.70
2018-10-17T01:56:08.939Z,0.70
2018-10-17T01:58:37.175Z,0.60
2018-10-17T02:01:05.439Z,0.70
2018-10-17T02:03:33.634Z,0.70
2018-10-17T02:06:01.837Z,0.70
2018-10-17T02:08:30.080Z,0.70
2018-10-17T02:10:58.365Z,0.70
2018-10-17T02:13:26.538Z,0.70
2018-10-17T02:15:54.755Z,0.70
2018-10-17T02:18:22.958Z,0.70
2018-10-17T02:20:51.176Z,0.70
2018-10-17T02:23:20.183Z,0.70
2018-10-17T02:25:49.200Z,0.70
2018-10-17T02:28:17.398Z,0.70
2018-10-17T02:30:45.654Z,0.70
2018-10-17T02:33:13.895Z,0.70
2018-10-17T02:35:42.094Z,0.70
2018-10-17T02:38:10.296Z,0.70
2018-10-17T02:40:38.524Z,0.70
2018-10-17T02:43:07.541Z,0.70
2018-10-17T02:45:36.513Z,0.70
2018-10-17T02:48:05.559Z,0.70
2018-10-17T02:50:33.756Z,0.70
2018-10-17T02:53:02.028Z,0.70
2018-10-17T02:55:31.033Z,0.70
2018-10-17T02:57:59.215Z,0.70
2018-10-17T03:00:28.236Z,0.70
2018-10-17T03:02:56.500Z,0.70
2018-10-17T03:05:25.440Z,0.80
2018-10-17T03:07:53.712Z,0.70
2018-10-17T03:10:21.950Z,0.70
2018-10-17T03:12:50.989Z,0.70
2018-10-17T03:15:19.190Z,0.60
2018-10-17T03:17:47.504Z,0.70
2018-10-17T03:20:15.646Z,0.70
2018-10-17T03:22:43.908Z,0.70
2018-10-17T03:25:13.006Z,0.70
2018-10-17T03:27:41.163Z,0.70
2018-10-17T03:30:09.331Z,0.70
2018-10-17T03:32:37.526Z,0.70
2018-10-17T03:35:05.838Z,0.70
2018-10-17T03:37:34.076Z,0.70
2018-10-17T03:40:02.290Z,0.70
2018-10-17T03:42:31.332Z,0.70
2018-10-17T03:44:59.563Z,0.70
2018-10-17T03:47:27.771Z,0.70
2018-10-17T03:49:56.095Z,0.70
2018-10-17T03:52:24.235Z,0.70
2018-10-17T03:54:52.527Z,0.70
2018-10-17T03:57:21.507Z,0.70
2018-10-17T03:59:49.861Z,0.70
2018-10-17T04:02:17.982Z,0.70
2018-10-17T04:04:46.219Z,0.70
2018-10-17T04:07:14.528Z,0.70
2018-10-17T04:09:42.743Z,0.67
2018-10-17T04:12:11.784Z,0.70
2018-10-17T04:14:39.969Z,0.70
2018-10-17T04:17:08.307Z,0.70
2018-10-17T04:19:36.502Z,0.70
2018-10-17T04:22:04.725Z,0.70
2018-10-17T04:24:32.981Z,0.70
2018-10-17T04:27:01.241Z,0.70
2018-10-17T04:29:29.481Z,0.70
2018-10-17T04:31:57.698Z,0.70
2018-10-17T04:34:25.946Z,0.70
2018-10-17T04:36:54.979Z,0.70
2018-10-17T04:39:23.910Z,0.70
2018-10-17T04:41:52.159Z,0.70
2018-10-17T04:44:20.374Z,0.70
2018-10-17T04:46:49.406Z,0.70
2018-10-17T04:49:17.754Z,0.70
2018-10-17T04:51:45.892Z,0.70
2018-10-17T04:54:14.137Z,0.70
2018-10-17T04:56:42.400Z,0.70
2018-10-17T04:59:11.374Z,0.70
2018-10-17T05:01:39.568Z,0.70
2018-10-17T05:04:07.801Z,0.70
2018-10-17T05:06:36.007Z,0.70
2018-10-17T05:09:05.029Z,0.70
2018-10-17T05:11:33.339Z,0.70
2018-10-17T05:14:01.589Z,0.70
2018-10-17T05:16:29.842Z,0.70
2018-10-17T05:18:58.106Z,0.70
2018-10-17T05:21:27.080Z,0.70
2018-10-17T05:23:55.326Z,0.70
2018-10-17T05:26:23.545Z,0.70
2018-10-17T05:28:52.589Z,0.70
2018-10-17T05:31:20.820Z,0.70
2018-10-17T05:33:49.786Z,0.70
2018-10-17T05:36:18.016Z,0.70
2018-10-17T05:38:46.261Z,0.70
2018-10-17T05:41:15.399Z,0.70
2018-10-17T05:43:43.523Z,0.70
2018-10-17T05:46:12.525Z,0.70
2018-10-17T05:48:41.522Z,0.70
2018-10-17T05:51:09.761Z,0.80
2018-10-17T05:53:38.044Z,0.70
2018-10-17T05:56:06.318Z,0.70
2018-10-17T05:58:34.602Z,0.70
2018-10-17T06:01:02.850Z,0.70
2018-10-17T06:03:31.104Z,0.70
2018-10-17T06:05:59.331Z,0.70
2018-10-17T06:08:27.600Z,0.70
2018-10-17T06:10:55.849Z,0.70
2018-10-17T06:13:24.234Z,0.70
2018-10-17T06:15:52.419Z,0.70
2018-10-17T06:18:20.640Z,0.70
2018-10-17T06:20:49.613Z,0.80
2018-10-17T06:23:19.394Z,0.80
2018-10-17T06:25:47.592Z,0.70
2018-10-17T06:28:15.860Z,0.70
2018-10-17T06:30:44.124Z,0.70
2018-10-17T06:33:12.325Z,0.70
2018-10-17T06:35:40.520Z,0.70
2018-10-17T06:38:09.531Z,0.70
2018-10-17T06:40:38.507Z,0.70
2018-10-17T06:43:07.504Z,0.70
2018-10-17T06:45:35.805Z,0.70
2018-10-17T06:48:04.022Z,0.70
2018-10-17T06:50:32.243Z,0.70
2018-10-17T06:53:01.290Z,0.70
2018-10-17T06:55:29.453Z,0.70
2018-10-17T06:57:57.697Z,0.70
2018-10-17T07:00:26.694Z,0.70
2018-10-17T07:02:55.681Z,0.70
2018-10-17T07:05:24.647Z,0.70
2018-10-17T07:07:52.890Z,0.70
2018-10-17T07:10:21.148Z,0.70
2018-10-17T07:12:50.193Z,0.70
2018-10-17T07:15:18.533Z,0.70
2018-10-17T07:17:46.708Z,0.70
2018-10-17T07:20:14.907Z,0.70
2018-10-17T07:22:43.129Z,0.70
2018-10-17T07:25:12.179Z,0.70
2018-10-17T07:27:40.363Z,0.70
2018-10-17T07:30:08.615Z,0.70
2018-10-17T07:32:36.823Z,0.70
2018-10-17T07:35:05.023Z,0.67
2018-10-17T07:37:34.013Z,0.70
2018-10-17T07:40:02.977Z,0.70
2018-10-17T07:42:31.199Z,0.63
2018-10-17T07:44:59.401Z,0.70
2018-10-17T07:47:27.619Z,0.60
2018-10-17T07:49:55.875Z,0.70
2018-10-17T07:52:24.098Z,0.60
2018-10-17T07:54:52.386Z,0.70
2018-10-17T07:57:21.401Z,0.60
2018-10-17T07:59:49.637Z,0.70
2018-10-17T08:02:17.819Z,0.60
2018-10-17T08:04:46.083Z,0.70
2018-10-17T08:07:14.294Z,0.70
2018-10-17T08:09:42.553Z,0.60
2018-10-17T08:12:10.827Z,0.70
2018-10-17T08:14:38.994Z,0.60
2018-10-17T08:17:07.985Z,0.70
2018-10-17T08:19:37.016Z,0.70
2018-10-17T08:22:05.277Z,0.60
2018-10-17T08:24:34.398Z,0.70
2018-10-17T08:27:03.594Z,0.70
2018-10-17T08:29:41.895Z,0.70
2018-10-17T08:32:10.134Z,0.60
2018-10-17T08:34:38.350Z,0.60
2018-10-17T08:37:07.163Z,0.63
2018-10-17T08:39:34.879Z,0.70
2018-10-17T08:42:03.864Z,0.70
2018-10-17T08:44:32.924Z,0.60
2018-10-17T08:47:01.192Z,0.60
2018-10-17T08:49:29.409Z,0.67
2018-10-17T08:51:58.404Z,0.70
2018-10-17T08:54:27.378Z,0.70
2018-10-17T08:56:55.612Z,0.70
2018-10-17T08:59:23.817Z,0.60
2018-10-17T09:01:52.093Z,0.60
2018-10-17T09:04:20.341Z,0.60
2018-10-17T09:06:48.601Z,0.67
2018-10-17T09:09:16.854Z,0.60
2018-10-17T09:11:45.842Z,0.60
2018-10-17T09:14:14.115Z,0.60
2018-10-17T09:16:42.343Z,0.70
2018-10-17T09:19:10.528Z,0.60
2018-10-17T09:21:39.289Z,0.70
2018-10-17T09:24:07.051Z,0.60
2018-10-17T09:26:35.248Z,0.60
2018-10-17T09:29:03.496Z,0.60
2018-10-17T09:31:32.521Z,0.60
2018-10-17T09:34:00.786Z,0.60
2018-10-17T09:36:29.762Z,0.60
2018-10-17T09:38:58.798Z,0.60
2018-10-17T09:41:27.041Z,0.60
2018-10-17T09:43:55.232Z,0.60
2018-10-17T09:46:23.482Z,0.60
2018-10-17T09:48:52.512Z,0.60
2018-10-17T09:51:20.794Z,0.60
2018-10-17T09:53:49.048Z,0.60
2018-10-17T09:56:17.265Z,0.60
2018-10-17T09:58:45.546Z,0.60
2018-10-17T10:01:13.814Z,0.60
2018-10-17T10:03:42.090Z,0.60
2018-10-17T10:06:10.364Z,0.60
2018-10-17T10:08:38.573Z,0.60
2018-10-17T10:11:08.416Z,0.60
2018-10-17T10:13:36.563Z,0.60
2018-10-17T10:16:04.908Z,0.60
2018-10-17T10:18:33.099Z,0.50
2018-10-17T10:21:01.361Z,0.60
2018-10-17T10:23:29.646Z,0.60
2018-10-17T10:25:57.854Z,0.60
2018-10-17T10:28:26.957Z,0.60
2018-10-17T10:30:55.113Z,0.60
2018-10-17T10:33:23.383Z,0.70
2018-10-17T10:35:51.678Z,0.60
2018-10-17T10:38:19.837Z,0.60
2018-10-17T10:40:48.105Z,0.60
2018-10-17T10:43:16.287Z,0.60
2018-10-17T10:45:44.505Z,0.60
2018-10-17T10:48:12.848Z,0.60
2018-10-17T10:50:41.807Z,0.60
2018-10-17T10:53:10.075Z,0.60
2018-10-17T10:55:38.297Z,0.60
2018-10-17T10:58:06.632Z,0.50
2018-10-17T11:00:34.750Z,0.50
2018-10-17T11:03:03.082Z,0.60
2018-10-17T11:05:32.248Z,0.50
2018-10-17T11:08:00.380Z,0.57
2018-10-17T11:10:29.317Z,0.50
2018-10-17T11:12:57.528Z,0.60
2018-10-17T11:15:25.739Z,0.50
2018-10-17T11:17:54.010Z,0.60
2018-10-17T11:20:22.228Z,0.50
2018-10-17T11:22:51.227Z,0.50
2018-10-17T11:25:19.479Z,0.50
2018-10-17T11:27:48.458Z,0.50
2018-10-17T11:30:17.443Z,0.43
2018-10-17T11:32:45.675Z,0.50
2018-10-17T11:35:14.153Z,0.50
2018-10-17T11:37:42.939Z,0.50
2018-10-17T11:40:12.033Z,0.50
2018-10-17T11:42:40.230Z,0.50
2018-10-17T11:45:08.466Z,0.40
2018-10-17T11:47:36.749Z,0.50
2018-10-17T11:50:04.951Z,0.50
2018-10-17T11:52:33.267Z,0.40
2018-10-17T11:55:01.557Z,0.40
2018-10-17T11:57:31.283Z,0.43
2018-10-17T12:00:00.270Z,0.40
2018-10-17T12:02:28.544Z,0.50
2018-10-17T12:04:57.941Z,0.40
2018-10-17T12:07:25.826Z,0.50
2018-10-17T12:09:54.843Z,0.40
2018-10-17T12:12:23.073Z,0.50
2018-10-17T12:14:51.394Z,0.40
2018-10-17T12:17:19.613Z,0.40
2018-10-17T12:19:47.923Z,0.40
2018-10-17T12:22:16.092Z,0.40
2018-10-17T12:24:44.300Z,0.40
2018-10-17T12:27:12.693Z,0.30
2018-10-17T12:29:40.863Z,0.40
2018-10-17T12:32:09.091Z,0.37
2018-10-17T12:34:37.305Z,0.40
2018-10-17T12:37:05.583Z,0.30
2018-10-17T12:39:33.870Z,0.40
2018-10-17T12:42:02.016Z,0.40
2018-10-17T12:44:31.003Z,0.40
2018-10-17T12:47:00.053Z,0.50
2018-10-17T12:49:28.265Z,0.50
2018-10-17T12:51:56.503Z,0.47
2018-10-17T12:54:24.722Z,0.40
2018-10-17T12:56:53.711Z,0.40
2018-10-17T12:59:21.939Z,0.45
2018-10-17T13:01:50.172Z,0.50
2018-10-17T13:04:19.171Z,0.47
2018-10-17T13:06:48.164Z,0.50
2018-10-17T13:09:16.375Z,0.50
2018-10-17T13:11:44.607Z,0.50
2018-10-17T13:14:13.600Z,0.55
2018-10-17T13:16:42.606Z,0.50
2018-10-17T13:19:10.851Z,0.50
2018-10-17T13:21:39.056Z,0.55
2018-10-17T13:24:07.265Z,0.50
2018-10-17T13:26:35.483Z,0.55
2018-10-17T13:29:03.729Z,0.50
2018-10-17T13:31:31.940Z,0.50
2018-10-17T13:34:00.199Z,0.50
2018-10-17T13:36:28.406Z,0.50
2018-10-17T13:38:57.436Z,0.50
2018-10-17T13:41:25.705Z,0.57
2018-10-17T13:43:53.924Z,0.50
2018-10-17T13:46:22.152Z,0.50
2018-10-17T13:48:50.404Z,0.50
2018-10-17T13:51:18.614Z,0.50
2018-10-17T13:53:46.869Z,0.50
2018-10-17T13:56:15.902Z,0.50
2018-10-17T13:58:44.115Z,0.50
2018-10-17T14:01:12.451Z,0.47
2018-10-17T14:03:41.420Z,0.40
2018-10-17T14:06:09.692Z,0.50
2018-10-17T14:08:37.864Z,0.50
2018-10-17T14:11:06.910Z,0.50
2018-10-17T14:13:35.143Z,0.50
2018-10-17T14:16:04.114Z,0.40
2018-10-17T14:18:32.405Z,0.40
2018-10-17T14:21:02.231Z,0.40
2018-10-17T14:23:30.499Z,0.50
2018-10-17T14:25:58.727Z,0.40
2018-10-17T14:28:27.021Z,0.40
2018-10-17T14:30:55.293Z,0.40
2018-10-17T14:33:23.544Z,0.40
2018-10-17T14:35:51.828Z,0.40
2018-10-17T14:38:20.082Z,0.40
2018-10-17T14:40:48.354Z,0.40
2018-10-17T14:43:17.317Z,0.40
2018-10-17T14:45:45.548Z,0.40
2018-10-17T14:48:13.774Z,0.43
2018-10-17T14:50:42.024Z,0.40
2018-10-17T14:53:10.314Z,0.40
2018-10-17T14:55:38.592Z,0.50
2018-10-17T14:58:06.755Z,0.40
2018-10-17T15:00:35.018Z,0.50
2018-10-17T15:03:03.290Z,0.50
2018-10-17T15:05:31.506Z,0.40
2018-10-17T15:07:59.735Z,0.40
2018-10-17T15:10:28.063Z,0.50
2018-10-17T15:12:56.409Z,0.40
2018-10-17T15:15:24.598Z,0.40
2018-10-17T15:17:52.914Z,0.50
2018-10-17T15:20:21.111Z,0.40
2018-10-17T15:22:49.332Z,0.50
2018-10-17T15:25:17.543Z,0.50
2018-10-17T15:27:45.789Z,0.40
2018-10-17T15:30:14.166Z,0.40
2018-10-17T15:32:42.394Z,0.40
2018-10-17T15:35:10.641Z,0.50
2018-10-17T15:37:38.861Z,0.40
2018-10-17T15:40:07.120Z,0.50
2018-10-17T15:42:35.349Z,0.50
2018-10-17T15:45:03.651Z,0.47
2018-10-17T15:47:31.837Z,0.50
2018-10-17T15:50:00.062Z,0.50
2018-10-17T15:52:28.346Z,0.40
2018-10-17T15:54:56.605Z,0.40
2018-10-17T15:57:24.821Z,0.50
2018-10-17T15:59:53.810Z,0.50
2018-10-17T16:02:22.170Z,0.50
2018-10-17T16:04:50.262Z,0.50
2018-10-17T16:07:19.336Z,0.50
2018-10-17T16:09:47.590Z,0.50
2018-10-17T16:12:15.942Z,0.47
2018-10-17T16:14:44.059Z,0.50
2018-10-17T16:17:12.386Z,0.50
2018-10-17T16:19:40.513Z,0.50
2018-10-17T16:22:08.785Z,0.50
2018-10-17T16:24:37.033Z,0.50
2018-10-17T16:27:05.325Z,0.53
2018-10-17T16:29:33.562Z,0.50
2018-10-17T16:32:02.614Z,0.50
2018-10-17T16:34:30.753Z,0.50
2018-10-17T16:36:59.027Z,0.40
2018-10-17T16:39:27.246Z,0.50
2018-10-17T16:41:55.495Z,0.47
2018-10-17T16:44:23.724Z,0.53
2018-10-17T16:46:52.006Z,0.50
2018-10-17T16:49:20.350Z,0.50
2018-10-17T16:51:48.555Z,0.50
2018-10-17T16:54:16.893Z,0.50
2018-10-17T16:56:45.083Z,0.53
2018-10-17T16:59:13.292Z,0.50
2018-10-17T17:01:41.521Z,0.60
2018-10-17T17:04:09.807Z,0.60
2018-10-17T17:06:38.023Z,0.60
2018-10-17T17:09:07.022Z,0.60
2018-10-17T17:11:35.220Z,0.53
2018-10-17T17:14:03.498Z,0.60
2018-10-17T17:16:31.802Z,0.50
2018-10-17T17:19:00.792Z,0.50
2018-10-17T17:21:29.032Z,0.50
2018-10-17T17:23:58.056Z,0.50
2018-10-17T17:26:27.017Z,0.50
2018-10-17T17:28:55.277Z,0.60
2018-10-17T17:31:23.550Z,0.60
2018-10-17T17:33:51.772Z,0.50
2018-10-17T17:36:20.054Z,0.50
2018-10-17T17:38:48.270Z,0.57
2018-10-17T17:41:16.508Z,0.60
2018-10-17T17:43:44.761Z,0.60
2018-10-17T17:46:13.058Z,0.60
2018-10-17T17:48:42.024Z,0.60
2018-10-17T17:51:11.012Z,0.60
2018-10-17T17:53:40.030Z,0.60
2018-10-17T17:56:08.294Z,0.50
2018-10-17T17:58:37.417Z,0.60
2018-10-17T18:01:05.538Z,0.60
2018-10-17T18:03:33.795Z,0.60
2018-10-17T18:06:02.021Z,0.60
2018-10-17T18:08:31.024Z,0.53
2018-10-17T18:10:59.251Z,0.60
2018-10-17T18:13:27.502Z,0.60
2018-10-17T18:15:55.743Z,0.50
2018-10-17T18:18:23.944Z,0.60
2018-10-17T18:20:52.206Z,0.60
2018-10-17T18:23:20.429Z,0.60
2018-10-17T18:25:48.698Z,0.60
2018-10-17T18:28:17.057Z,0.53
2018-10-17T18:30:45.192Z,0.60
2018-10-17T18:33:14.186Z,0.60
2018-10-17T18:35:43.217Z,0.60
2018-10-17T18:38:11.470Z,0.60
2018-10-17T18:40:39.858Z,0.60
2018-10-17T18:43:07.975Z,0.60
2018-10-17T18:45:36.279Z,0.60
2018-10-17T18:48:04.760Z,0.60
2018-10-17T18:50:33.744Z,0.60
2018-10-17T18:53:02.010Z,0.60
2018-10-17T18:55:30.216Z,0.60
2018-10-17T18:57:59.209Z,0.50
2018-10-17T19:00:28.212Z,0.60
2018-10-17T19:02:57.218Z,0.60
2018-10-17T19:05:26.606Z,0.60
2018-10-17T19:07:55.687Z,0.60
2018-10-17T19:10:23.937Z,0.60
2018-10-17T19:12:52.209Z,0.60
2018-10-17T19:15:20.459Z,0.60
2018-10-17T19:17:48.695Z,0.60
2018-10-17T19:20:16.902Z,0.60
2018-10-17T19:22:45.177Z,0.60
2018-10-17T19:25:13.442Z,0.60
2018-10-17T19:27:42.461Z,0.60
2018-10-17T19:30:10.999Z,0.57
2018-10-17T19:32:39.225Z,0.60
2018-10-17T19:35:07.440Z,0.60
2018-10-17T19:37:35.733Z,0.60
2018-10-17T19:40:04.741Z,0.60
2018-10-17T19:42:33.747Z,0.60
2018-10-17T19:45:02.043Z,0.60
2018-10-17T19:47:31.048Z,0.60
2018-10-17T19:49:59.249Z,0.60
2018-10-17T19:52:27.489Z,0.60
2018-10-17T19:54:55.717Z,0.60
2018-10-17T19:57:23.980Z,0.60
2018-10-17T19:59:52.509Z,0.60
2018-10-17T20:02:21.515Z,0.60
2018-10-17T20:04:49.744Z,0.60
2018-10-17T20:07:17.978Z,0.60
2018-10-17T20:09:46.194Z,0.67
2018-10-17T20:12:14.413Z,0.70
2018-10-17T20:14:42.684Z,0.60
2018-10-17T20:17:11.666Z,0.60
2018-10-17T20:19:40.666Z,0.60
2018-10-17T20:22:08.894Z,0.60
2018-10-17T20:24:37.126Z,0.60
2018-10-17T20:27:06.157Z,0.60
2018-10-17T20:29:34.365Z,0.60
2018-10-17T20:32:02.615Z,0.60
2018-10-17T20:34:31.158Z,0.60
2018-10-17T20:37:00.131Z,0.60
2018-10-17T20:39:29.147Z,0.63
2018-10-17T20:41:57.380Z,0.60
2018-10-17T20:44:25.582Z,0.60
2018-10-17T20:46:54.613Z,0.60
2018-10-17T20:49:22.831Z,0.60
2018-10-17T20:51:51.133Z,0.60
2018-10-17T20:54:20.151Z,0.60
2018-10-17T20:56:48.419Z,0.70
2018-10-17T20:59:16.994Z,0.70
2018-10-17T21:01:45.981Z,0.60
2018-10-17T21:04:15.029Z,0.60
2018-10-17T21:06:43.310Z,0.60
2018-10-17T21:09:11.567Z,0.70
2018-10-17T21:11:39.787Z,0.60
2018-10-17T21:14:08.098Z,0.60
2018-10-17T21:16:36.318Z,0.60
2018-10-17T21:19:04.591Z,0.70
2018-10-17T21:21:32.812Z,0.70
2018-10-17T21:24:01.859Z,0.63
2018-10-17T21:26:30.063Z,0.70
2018-10-17T21:28:58.288Z,0.70
2018-10-17T21:31:26.505Z,0.70
2018-10-17T21:33:54.742Z,0.70
2018-10-17T21:36:22.993Z,0.67
2018-10-17T21:38:51.983Z,0.60
2018-10-17T21:41:20.968Z,0.70
2018-10-17T21:43:49.999Z,0.60
2018-10-17T21:46:18.257Z,0.70
2018-10-17T21:48:46.491Z,0.70
2018-10-17T21:51:14.743Z,0.63
2018-10-17T21:53:42.969Z,0.60
2018-10-17T21:56:12.017Z,0.60
2018-10-17T21:58:40.179Z,0.70
2018-10-17T22:01:08.431Z,0.60
2018-10-17T22:03:37.417Z,0.67
2018-10-17T22:06:06.387Z,0.60
2018-10-17T22:08:34.677Z,0.60
2018-10-17T22:11:02.922Z,0.70
2018-10-17T22:13:31.208Z,0.70
2018-10-17T22:15:59.402Z,0.60
2018-10-17T22:18:28.397Z,0.70
2018-10-17T22:20:56.646Z,0.70
2018-10-17T22:23:24.917Z,0.70
2018-10-17T22:25:53.176Z,0.70
2018-10-17T22:28:21.437Z,0.70
2018-10-17T22:30:49.660Z,0.70
2018-10-17T22:33:17.936Z,0.60
2018-10-17T22:35:46.138Z,0.60
2018-10-17T22:38:15.168Z,0.70
2018-10-17T22:40:43.422Z,0.70
2018-10-17T22:43:12.410Z,0.70
2018-10-17T22:45:41.428Z,0.70
2018-10-17T22:48:09.702Z,0.67
2018-10-17T22:50:37.932Z,0.70
2018-10-17T22:53:06.178Z,0.70
2018-10-17T22:55:34.390Z,0.70
2018-10-17T22:58:02.890Z,0.70
2018-10-17T23:00:31.883Z,0.70
2018-10-17T23:03:00.877Z,0.63
2018-10-17T23:05:29.903Z,0.60
2018-10-17T23:07:58.196Z,0.70
2018-10-17T23:10:27.178Z,0.60
2018-10-17T23:12:55.396Z,0.70
2018-10-17T23:15:23.616Z,0.70
2018-10-17T23:17:52.596Z,0.63
2018-10-17T23:20:21.607Z,0.60
2018-10-17T23:22:49.868Z,0.70
2018-10-17T23:25:18.896Z,0.70
2018-10-17T23:27:47.178Z,0.70
2018-10-17T23:30:15.410Z,0.70
2018-10-17T23:32:44.446Z,0.70
2018-10-17T23:35:12.680Z,0.70
2018-10-17T23:37:41.688Z,0.70
2018-10-17T23:40:10.660Z,0.70
2018-10-17T23:42:39.745Z,0.70
2018-10-17T23:45:07.942Z,0.70
2018-10-17T23:47:36.200Z,0.70
2018-10-17T23:50:04.446Z,0.70
2018-10-17T23:52:32.683Z,0.70
2018-10-17T23:55:01.699Z,0.60
2018-10-17T23:57:29.899Z,0.70
2018-10-17T23:59:58.263Z,0.67
